Aérodrome :
LOGIN :

S'inscrire | Disclaimer

   EN    FR    IT 

 










Légende :    VFR   VFR Marginal   IFR   IFR Intensif   IFR Très Intensif
Visi : 
Plafond : 
>= 8 km
>= 3000ft
5 à 8 km
1000 à 3000 ft
1500m à 5 km
500 à 1000 ft
800 à 1500m
200 à 500 ft
< 800m
< 200 ft
Symboles :   Orages  Brouillard  Fortes neiges  Fortes précipitations  Vent > 20 kt
SIGMETs :   Divers  Orages  Givrage  Turbulence  Onde Orograph.  Cendres Volcan.






- Altitude de l'aérodrome : 313 ft
- Code IATA : LEH


LFOH - Le Havre Octeville

DERNIER METAR :
  • 090930Z AUTO 25012KT 9999 SCT036 BKN049 07/05 Q1006 BECMG 24015G25KT

METARs EXPIRÉS :
  • 090900Z AUTO 24011KT 9999 FEW032 BKN041 OVC052 07/05 Q1006 BECMG 24015G25KT
  • 090830Z AUTO 25015KT 9999 DZ BKN033 BKN045 BKN056 06/04 Q1006 BECMG 24015G25KT NSW
  • 090800Z AUTO 24013KT 9999 SCT047 BKN060 06/04 Q1005 BECMG 24015G25KT
  • 090730Z AUTO 24013KT 9999 SCT034 SCT045 BKN060 06/04 Q1005 BECMG 24015G25KT
  • 090700Z AUTO 25017KT 9999 SCT037 BKN047 BKN056 07/04 Q1005 BECMG 24015G25KT

TAF TAF LFOH
Valide du 09 à 06h jusqu'au 10 à 06h UTC


090500Z 0906/1006 24015G25KT 9999 BKN025
BECMG 0916/0919 18015G25KT RA OVC013
TEMPO 0919/0924 18020G35KT 3000 OVC004
FM100000 30020G30KT 9999 BKN020
TEMPO 1000/1005 32025G43KT 3000 SHRAGS BKN013 BKN020CB
ATIS : +33 2 35 54 64 93



MET'MAP, la Météo Aéronautique d'un coup d'oeil ! - Copyright ORBIFLY Décembre 2007 - Disclaimer

ORBIFLY MET'MAP TEAM :

Programmation & Développement : Alexandra Zaïnal
Sur une idée originale de : Baudouin d'Aumeries
Assistance à la programmation : Marc-Olivier Méhu
Soutien technique & logistique : Manuel Goepfert

Contact : metmap@orbifly.com




SOURCES & CREDITS :

   NOAA